createdAt,value
2023-02-15T00:02:48.735Z,5.88
2023-02-15T00:05:51.283Z,6.15
2023-02-15T00:08:55.239Z,4.35
2023-02-15T00:11:58.004Z,4.50
2023-02-15T00:15:00.524Z,8.38
2023-02-15T00:18:03.074Z,10.65
2023-02-15T00:21:07.450Z,11.18
2023-02-15T00:24:12.165Z,13.88
2023-02-15T00:27:14.786Z,7.05
2023-02-15T00:30:17.664Z,11.70
2023-02-15T00:33:20.855Z,6.43
2023-02-15T00:36:23.431Z,9.88
2023-02-15T00:39:26.727Z,5.93
2023-02-15T00:42:29.242Z,7.85
2023-02-15T00:45:31.920Z,7.20
2023-02-15T00:48:34.524Z,5.70
2023-02-15T00:51:37.042Z,8.52
2023-02-15T00:54:40.242Z,5.57
2023-02-15T00:57:43.330Z,6.32
2023-02-15T01:00:47.672Z,9.68
2023-02-15T01:03:50.554Z,3.97
2023-02-15T01:06:53.494Z,13.85
2023-02-15T01:09:56.057Z,5.43
2023-02-15T01:12:58.630Z,4.47
2023-02-15T01:16:01.721Z,5.05
2023-02-15T01:19:04.586Z,5.35
2023-02-15T01:22:07.843Z,3.97
2023-02-15T01:25:11.578Z,8.25
2023-02-15T01:28:14.223Z,7.30
2023-02-15T01:31:18.460Z,5.28
2023-02-15T01:34:21.485Z,5.20
2023-02-15T01:37:24.215Z,5.20
2023-02-15T01:40:27.162Z,6.28
2023-02-15T01:43:43.797Z,6.13
2023-02-15T01:46:50.835Z,6.22
2023-02-15T01:50:05.393Z,11.70
2023-02-15T01:53:20.234Z,12.00
2023-02-15T01:56:29.694Z,6.65
2023-02-15T01:59:33.416Z,7.82
2023-02-15T02:02:37.447Z,4.57
2023-02-15T02:05:40.986Z,19.23
2023-02-15T02:08:43.634Z,3.65
2023-02-15T02:11:49.775Z,3.78
2023-02-15T02:14:52.988Z,4.80
2023-02-15T02:18:10.915Z,6.18
2023-02-15T02:21:36.484Z,4.72
2023-02-15T02:24:41.843Z,4.60
2023-02-15T02:28:16.453Z,5.28
2023-02-15T02:31:40.959Z,12.30
2023-02-15T02:34:56.610Z,3.25
2023-02-15T02:38:38.523Z,7.57
2023-02-15T02:41:55.896Z,3.17
2023-02-15T02:45:03.289Z,2.05
2023-02-15T02:48:16.628Z,16.73
2023-02-15T02:51:31.973Z,2.95
2023-02-15T02:54:41.320Z,2.85
2023-02-15T02:57:55.019Z,5.97
2023-02-15T03:01:02.666Z,7.43
2023-02-15T03:04:10.506Z,4.57
2023-02-15T03:07:17.264Z,2.05
2023-02-15T03:10:22.612Z,7.25
2023-02-15T03:13:27.750Z,6.25
2023-02-15T03:16:31.003Z,5.40
2023-02-15T03:19:36.209Z,4.35
2023-02-15T03:22:53.112Z,2.35
2023-02-15T03:26:02.017Z,1.73
2023-02-15T03:29:09.551Z,5.22
2023-02-15T03:32:14.648Z,3.75
2023-02-15T03:35:17.591Z,2.75
2023-02-15T03:38:29.681Z,3.33
2023-02-15T03:41:35.742Z,2.00
2023-02-15T03:44:54.850Z,3.45
2023-02-15T03:47:58.393Z,4.03
2023-02-15T03:51:29.689Z,3.65
2023-02-15T03:54:43.833Z,28.25
2023-02-15T03:58:05.482Z,18.13
2023-02-15T04:01:36.245Z,4.38
2023-02-15T04:04:42.299Z,2.95
2023-02-15T04:07:45.361Z,4.03
2023-02-15T04:10:53.908Z,4.68
2023-02-15T04:13:57.840Z,4.00
2023-02-15T04:17:00.427Z,3.30
2023-02-15T04:20:21.903Z,7.20
2023-02-15T04:23:42.972Z,3.45
2023-02-15T04:26:45.536Z,4.13
2023-02-15T04:29:51.136Z,1.85
2023-02-15T04:32:55.206Z,4.10
2023-02-15T04:35:57.838Z,6.38
2023-02-15T04:39:00.766Z,1.98
2023-02-15T04:42:03.364Z,6.40
2023-02-15T04:45:06.418Z,3.40
2023-02-15T04:48:09.041Z,3.58
2023-02-15T04:51:12.403Z,2.22
2023-02-15T04:54:14.892Z,2.08
2023-02-15T04:57:17.584Z,1.90
2023-02-15T05:00:20.362Z,2.92
2023-02-15T05:03:22.943Z,3.05
2023-02-15T05:06:25.524Z,4.00
2023-02-15T05:09:28.287Z,2.78
2023-02-15T05:12:31.095Z,4.57
2023-02-15T05:15:33.730Z,5.70
2023-02-15T05:18:36.409Z,3.40
2023-02-15T05:21:39.055Z,6.15
2023-02-15T05:25:00.331Z,4.13
2023-02-15T05:28:21.345Z,4.47
2023-02-15T05:31:24.395Z,4.70
2023-02-15T05:34:27.685Z,5.93
2023-02-15T05:37:30.454Z,6.32
2023-02-15T05:40:33.643Z,6.03
2023-02-15T05:43:36.746Z,7.13
2023-02-15T05:46:39.941Z,6.40
2023-02-15T05:49:42.627Z,2.25
2023-02-15T05:52:46.118Z,4.13
2023-02-15T05:55:49.490Z,5.82
2023-02-15T05:58:54.581Z,5.78
2023-02-15T06:01:57.704Z,3.00
2023-02-15T06:05:00.582Z,2.65
2023-02-15T06:08:05.850Z,7.95
2023-02-15T06:11:09.402Z,4.35
2023-02-15T06:14:12.553Z,5.15
2023-02-15T06:17:15.351Z,5.10
2023-02-15T06:20:18.555Z,4.88
2023-02-15T06:23:21.327Z,3.30
2023-02-15T06:26:24.224Z,4.55
2023-02-15T06:29:27.199Z,5.90
2023-02-15T06:32:32.028Z,6.00
2023-02-15T06:35:34.839Z,11.07
2023-02-15T06:38:37.957Z,5.40
2023-02-15T06:41:43.293Z,9.23
2023-02-15T06:44:46.643Z,3.45
2023-02-15T06:47:49.467Z,12.98
2023-02-15T06:50:52.174Z,9.43
2023-02-15T06:53:54.933Z,5.93
2023-02-15T06:56:57.616Z,17.88
2023-02-15T07:00:00.880Z,29.20
2023-02-15T07:03:04.054Z,40.70
2023-02-15T07:06:12.076Z,92.47
2023-02-15T07:09:14.762Z,26.60
2023-02-15T07:12:36.345Z,15.38
2023-02-15T07:15:39.095Z,14.45
2023-02-15T07:18:42.136Z,33.50
2023-02-15T07:21:46.750Z,17.15
2023-02-15T07:24:50.671Z,13.10
2023-02-15T07:28:04.093Z,9.63
2023-02-15T07:31:06.891Z,22.15
2023-02-15T07:34:10.264Z,34.63
2023-02-15T07:37:13.023Z,54.42
2023-02-15T07:40:16.491Z,61.88
2023-02-15T07:43:19.336Z,30.73
2023-02-15T07:46:23.040Z,21.02
2023-02-15T07:49:25.821Z,38.60
2023-02-15T07:52:29.326Z,26.10
2023-02-15T07:55:32.672Z,16.88
2023-02-15T07:58:54.056Z,21.23
2023-02-15T08:01:58.376Z,10.63
2023-02-15T08:05:01.292Z,14.75
2023-02-15T08:08:04.970Z,8.13
2023-02-15T08:11:27.273Z,10.13
2023-02-15T08:14:29.889Z,9.48
2023-02-15T08:17:32.452Z,11.70
2023-02-15T08:20:34.939Z,8.50
2023-02-15T08:23:37.675Z,10.98
2023-02-15T08:26:42.425Z,8.05
2023-02-15T08:29:45.514Z,10.98
2023-02-15T08:32:48.170Z,12.73
2023-02-15T08:35:50.780Z,9.70
2023-02-15T08:38:53.601Z,13.52
2023-02-15T08:41:56.390Z,9.60
2023-02-15T08:44:59.189Z,13.48
2023-02-15T08:48:02.377Z,7.82
2023-02-15T08:59:05.813Z,14.43
2023-02-15T09:02:11.444Z,12.90
2023-02-15T09:09:34.186Z,19.93
2023-02-15T09:12:36.954Z,10.98
2023-02-15T09:15:39.585Z,12.75
2023-02-15T09:18:42.248Z,12.32
2023-02-15T09:21:44.848Z,16.40
2023-02-15T09:24:47.660Z,16.83
2023-02-15T09:27:50.272Z,11.88
2023-02-15T09:30:54.372Z,12.20
2023-02-15T09:33:57.600Z,6.57
2023-02-15T09:37:00.145Z,10.45
2023-02-15T09:40:02.811Z,10.70
2023-02-15T09:43:16.722Z,11.90
2023-02-15T09:46:25.197Z,10.55
2023-02-15T09:49:33.804Z,13.30
2023-02-15T09:53:10.959Z,20.13
2023-02-15T09:56:31.118Z,13.50
2023-02-15T09:59:47.369Z,8.25
2023-02-15T10:03:01.292Z,14.18
2023-02-15T10:06:06.964Z,11.50
2023-02-15T10:09:47.720Z,10.55
2023-02-15T10:13:10.742Z,7.82
2023-02-15T10:16:35.850Z,9.60
2023-02-15T10:19:58.917Z,11.52
2023-02-15T10:23:20.215Z,10.20
2023-02-15T10:26:28.271Z,11.68
2023-02-15T10:29:38.811Z,10.68
2023-02-15T10:33:05.057Z,10.05
2023-02-15T10:36:46.911Z,7.40
2023-02-15T10:40:20.889Z,9.05
2023-02-15T10:43:58.912Z,12.40
2023-02-15T10:47:34.996Z,12.05
2023-02-15T10:50:54.342Z,10.07
2023-02-15T10:54:29.845Z,9.65
2023-02-15T10:57:38.641Z,18.52
2023-02-15T11:00:49.021Z,6.75
2023-02-15T11:04:18.220Z,8.30
2023-02-15T11:07:28.378Z,12.90
2023-02-15T11:10:43.611Z,8.80
2023-02-15T11:13:50.903Z,9.52
2023-02-15T11:20:08.917Z,13.10
2023-02-15T11:23:17.395Z,9.57
2023-02-15T11:26:39.594Z,13.02
2023-02-15T11:29:54.528Z,11.27
2023-02-15T11:32:59.521Z,10.95
2023-02-15T11:36:06.722Z,8.90
2023-02-15T11:42:20.425Z,10.20
2023-02-15T11:45:29.331Z,16.90
2023-02-15T11:48:33.124Z,9.07
2023-02-15T11:51:36.460Z,8.88
2023-02-15T11:54:43.219Z,9.75
2023-02-15T11:57:51.828Z,11.18
2023-02-15T12:01:10.668Z,11.13
2023-02-15T12:04:22.696Z,11.93
2023-02-15T12:07:48.423Z,11.82
2023-02-15T12:11:13.769Z,9.70
2023-02-15T12:14:19.212Z,11.88
2023-02-15T12:17:23.262Z,17.30
2023-02-15T12:20:30.391Z,10.95
2023-02-15T12:26:36.854Z,13.48
2023-02-15T12:29:45.365Z,12.20
2023-02-15T12:33:25.180Z,12.85
2023-02-15T12:36:33.733Z,13.07
2023-02-15T12:39:36.312Z,15.95
2023-02-15T12:42:44.371Z,11.90
2023-02-15T12:45:47.022Z,14.25
2023-02-15T12:49:08.044Z,12.63
2023-02-15T12:52:20.660Z,12.32
2023-02-15T12:55:31.060Z,14.77
2023-02-15T12:58:35.818Z,14.45
2023-02-15T13:01:38.621Z,13.18
2023-02-15T13:04:49.277Z,12.48
2023-02-15T13:07:56.022Z,15.30
2023-02-15T13:11:11.066Z,12.20
2023-02-15T13:14:23.141Z,9.05
2023-02-15T13:17:32.786Z,12.20
2023-02-15T13:20:36.599Z,13.00
2023-02-15T13:23:40.992Z,13.05
2023-02-15T13:26:48.309Z,15.48
2023-02-15T13:29:54.481Z,17.55
2023-02-15T13:33:12.208Z,17.38
2023-02-15T13:39:58.464Z,14.05
2023-02-15T13:43:12.683Z,17.97
2023-02-15T13:46:53.037Z,15.82
2023-02-15T13:50:28.696Z,18.02
2023-02-15T13:53:43.509Z,14.85
2023-02-15T13:56:55.000Z,19.90
2023-02-15T13:59:57.910Z,19.13
2023-02-15T14:03:22.261Z,16.85
2023-02-15T14:06:43.796Z,14.43
2023-02-15T14:10:15.755Z,20.00
2023-02-15T14:13:39.596Z,14.95
2023-02-15T14:17:05.793Z,18.20
2023-02-15T14:20:41.377Z,18.38
2023-02-15T14:23:54.773Z,16.33
2023-02-15T14:27:20.906Z,16.45
2023-02-15T14:30:38.997Z,17.77
2023-02-15T14:33:47.323Z,17.25
2023-02-15T14:36:52.216Z,19.67
2023-02-15T14:41:02.566Z,16.95
2023-02-15T14:44:27.216Z,25.70
2023-02-15T14:47:37.374Z,19.17
2023-02-15T14:50:43.926Z,20.00
2023-02-15T14:53:47.521Z,16.90
2023-02-15T14:57:02.346Z,19.38
2023-02-15T15:00:35.370Z,16.58
2023-02-15T15:03:38.453Z,23.55
2023-02-15T15:06:45.129Z,18.80
2023-02-15T15:09:59.506Z,20.65
2023-02-15T15:13:34.090Z,22.33
2023-02-15T15:16:36.722Z,18.42
2023-02-15T15:19:52.762Z,18.50
2023-02-15T15:23:22.253Z,20.55
2023-02-15T15:26:26.498Z,22.08
2023-02-15T15:29:41.975Z,22.45
2023-02-15T15:32:59.768Z,21.20
2023-02-15T15:36:37.968Z,21.10
2023-02-15T15:39:55.625Z,21.05
2023-02-15T15:46:51.770Z,24.15
2023-02-15T15:49:58.819Z,26.80
2023-02-15T15:53:02.857Z,22.65
2023-02-15T15:56:11.597Z,17.30
2023-02-15T15:59:20.221Z,16.63
2023-02-15T16:02:24.803Z,21.27
2023-02-15T16:05:27.694Z,26.17
2023-02-15T16:08:31.688Z,28.13
2023-02-15T16:11:34.876Z,25.10
2023-02-15T16:14:39.962Z,26.33
2023-02-15T16:17:44.784Z,25.83
2023-02-15T16:20:52.869Z,31.95
2023-02-15T16:24:19.128Z,34.28
2023-02-15T16:27:38.129Z,31.52
2023-02-15T16:30:43.396Z,23.42
2023-02-15T16:33:47.523Z,27.73
2023-02-15T16:36:52.099Z,22.63
2023-02-15T16:39:56.256Z,33.72
2023-02-15T16:43:06.298Z,38.75
2023-02-15T16:46:14.904Z,37.55
2023-02-15T16:49:23.551Z,38.13
2023-02-15T16:52:27.651Z,39.22
2023-02-15T16:55:38.957Z,35.65
2023-02-15T16:58:44.388Z,22.35
2023-02-15T17:01:47.387Z,27.10
2023-02-15T17:05:21.085Z,28.88
2023-02-15T17:08:35.555Z,30.77
2023-02-15T17:11:42.860Z,25.48
2023-02-15T17:17:48.207Z,26.70
2023-02-15T17:20:52.905Z,29.77
2023-02-15T17:24:01.390Z,24.00
2023-02-15T17:27:26.140Z,27.48
2023-02-15T17:30:34.873Z,19.50
2023-02-15T17:33:40.535Z,21.00
2023-02-15T17:36:59.645Z,22.85
2023-02-15T17:40:16.054Z,23.92
2023-02-15T17:43:19.052Z,40.58
2023-02-15T17:46:24.553Z,35.13
2023-02-15T17:49:35.202Z,42.85
2023-02-15T17:52:37.968Z,33.17
2023-02-15T17:55:41.668Z,21.92
2023-02-15T17:58:44.725Z,18.08
2023-02-15T18:02:08.120Z,24.42
2023-02-15T18:05:33.452Z,20.65
2023-02-15T18:08:54.853Z,49.85
2023-02-15T18:11:58.171Z,29.73
2023-02-15T18:15:07.954Z,25.38
2023-02-15T18:18:14.102Z,28.25
2023-02-15T18:21:16.980Z,20.15
2023-02-15T18:24:24.878Z,18.48
2023-02-15T18:27:27.650Z,26.08
2023-02-15T18:30:30.684Z,17.85
2023-02-15T18:33:41.546Z,19.00
2023-02-15T18:36:46.256Z,18.17
2023-02-15T18:39:50.840Z,18.58
2023-02-15T18:42:53.934Z,20.75
2023-02-15T18:45:57.053Z,21.88
2023-02-15T18:49:00.326Z,21.52
2023-02-15T18:52:04.127Z,18.92
2023-02-15T18:55:23.527Z,17.52
2023-02-15T18:58:28.438Z,18.15
2023-02-15T19:01:31.579Z,19.25
2023-02-15T19:04:34.578Z,19.48
2023-02-15T19:07:37.797Z,22.33
2023-02-15T19:10:40.761Z,17.35
2023-02-15T19:13:44.244Z,19.77
2023-02-15T19:16:47.245Z,16.23
2023-02-15T19:19:51.833Z,15.02
2023-02-15T19:22:56.615Z,14.10
2023-02-15T19:25:59.673Z,14.55
2023-02-15T19:29:02.883Z,12.40
2023-02-15T19:32:05.967Z,20.05
2023-02-15T19:35:15.696Z,15.98
2023-02-15T19:38:20.419Z,16.13
2023-02-15T19:41:34.746Z,17.17
2023-02-15T19:44:40.046Z,16.35
2023-02-15T19:47:43.768Z,13.05
2023-02-15T19:50:47.255Z,18.65
2023-02-15T19:53:50.246Z,40.78
2023-02-15T19:56:52.963Z,66.70
2023-02-15T19:59:55.947Z,72.30
2023-02-15T20:03:00.138Z,24.05
2023-02-15T20:06:03.045Z,23.23
2023-02-15T20:09:06.117Z,40.50
2023-02-15T20:12:24.518Z,28.83
2023-02-15T20:15:28.491Z,16.45
2023-02-15T20:18:31.751Z,16.20
2023-02-15T20:21:36.381Z,22.17
2023-02-15T20:24:39.263Z,18.63
2023-02-15T20:27:44.320Z,18.77
2023-02-15T20:30:47.981Z,24.73
2023-02-15T20:33:51.460Z,16.83
2023-02-15T20:36:54.596Z,12.93
2023-02-15T20:39:57.466Z,17.75
2023-02-15T20:43:01.368Z,21.10
2023-02-15T20:46:04.653Z,14.60
2023-02-15T20:49:07.945Z,36.42
2023-02-15T20:52:19.606Z,29.25
2023-02-15T20:55:29.614Z,46.58
2023-02-15T20:58:38.745Z,73.95
2023-02-15T21:01:44.298Z,93.15
2023-02-15T21:04:47.123Z,62.90
2023-02-15T21:07:51.141Z,66.07
2023-02-15T21:10:54.930Z,55.25
2023-02-15T21:13:58.380Z,41.30
2023-02-15T21:17:01.393Z,36.63
2023-02-15T21:20:04.410Z,21.88
2023-02-15T21:23:07.881Z,32.42
2023-02-15T21:26:22.656Z,24.38
2023-02-15T21:29:30.770Z,19.98
2023-02-15T21:32:36.076Z,13.25
2023-02-15T21:35:39.720Z,14.52
2023-02-15T21:38:42.720Z,16.00
2023-02-15T21:42:08.693Z,10.27
2023-02-15T21:45:35.042Z,12.50
2023-02-15T21:48:37.769Z,16.83
2023-02-15T21:51:59.160Z,14.82
2023-02-15T21:55:02.108Z,15.05
2023-02-15T21:58:06.168Z,17.83
2023-02-15T22:01:28.565Z,16.58
2023-02-15T22:04:31.411Z,13.57
2023-02-15T22:07:34.015Z,14.40
2023-02-15T22:10:36.750Z,13.98
2023-02-15T22:13:40.063Z,14.13
2023-02-15T22:16:42.720Z,17.23
2023-02-15T22:19:46.744Z,14.98
2023-02-15T22:22:50.436Z,13.10
2023-02-15T22:25:59.090Z,14.90
2023-02-15T22:29:01.800Z,13.95
2023-02-15T22:32:05.106Z,19.60
2023-02-15T22:35:15.967Z,15.20
2023-02-15T22:38:18.912Z,20.70
2023-02-15T22:41:23.948Z,14.93
2023-02-15T22:44:30.309Z,18.25
2023-02-15T22:47:34.661Z,13.33
2023-02-15T22:50:37.942Z,14.35
2023-02-15T22:53:43.227Z,15.95
2023-02-15T22:56:52.927Z,17.90
2023-02-15T22:59:55.841Z,12.32
2023-02-15T23:02:58.605Z,14.65
2023-02-15T23:06:01.119Z,17.27
2023-02-15T23:09:03.996Z,15.50
2023-02-15T23:12:27.991Z,15.43
2023-02-15T23:15:33.127Z,11.70
2023-02-15T23:18:41.515Z,20.48
2023-02-15T23:21:44.577Z,14.55
2023-02-15T23:24:52.013Z,23.48
2023-02-15T23:27:57.393Z,28.00
2023-02-15T23:31:00.394Z,22.00
2023-02-15T23:34:12.054Z,32.25
2023-02-15T23:37:18.307Z,20.88
2023-02-15T23:40:40.564Z,27.13
2023-02-15T23:43:54.784Z,18.33
2023-02-15T23:46:58.726Z,14.75
2023-02-15T23:50:01.677Z,15.43
2023-02-15T23:53:04.588Z,19.50
2023-02-15T23:56:07.860Z,12.32
2023-02-15T23:59:16.432Z,13.90
